sensor_id;sensor_type;location;lat;lon;timestamp;P1;durP1;ratioP1;P2;durP2;ratioP2
23632;SDS011;11993;48.748;9.166;2023-09-18T00:00:42;3.65;;;2.60;;
23632;SDS011;11993;48.748;9.166;2023-09-18T00:03:09;4.93;;;2.25;;
23632;SDS011;11993;48.748;9.166;2023-09-18T00:05:34;3.17;;;2.45;;
23632;SDS011;11993;48.748;9.166;2023-09-18T00:08:00;3.35;;;2.50;;
23632;SDS011;11993;48.748;9.166;2023-09-18T00:10:27;4.25;;;2.60;;
23632;SDS011;11993;48.748;9.166;2023-09-18T00:12:55;5.30;;;2.30;;
23632;SDS011;11993;48.748;9.166;2023-09-18T00:15:21;6.50;;;2.60;;
23632;SDS011;11993;48.748;9.166;2023-09-18T00:17:47;3.30;;;2.17;;
23632;SDS011;11993;48.748;9.166;2023-09-18T00:20:12;4.25;;;2.20;;
23632;SDS011;11993;48.748;9.166;2023-09-18T00:22:38;5.10;;;2.88;;
23632;SDS011;11993;48.748;9.166;2023-09-18T00:25:04;3.65;;;2.70;;
23632;SDS011;11993;48.748;9.166;2023-09-18T00:27:30;4.45;;;2.22;;
23632;SDS011;11993;48.748;9.166;2023-09-18T00:29:57;6.88;;;2.33;;
23632;SDS011;11993;48.748;9.166;2023-09-18T00:32:23;2.67;;;2.38;;
23632;SDS011;11993;48.748;9.166;2023-09-18T00:34:48;4.65;;;2.90;;
23632;SDS011;11993;48.748;9.166;2023-09-18T00:37:14;4.07;;;2.42;;
23632;SDS011;11993;48.748;9.166;2023-09-18T00:39:39;4.60;;;2.65;;
23632;SDS011;11993;48.748;9.166;2023-09-18T00:42:06;4.38;;;2.13;;
23632;SDS011;11993;48.748;9.166;2023-09-18T00:44:31;5.50;;;2.40;;
23632;SDS011;11993;48.748;9.166;2023-09-18T00:46:57;5.95;;;2.40;;
23632;SDS011;11993;48.748;9.166;2023-09-18T00:49:22;6.25;;;2.42;;
23632;SDS011;11993;48.748;9.166;2023-09-18T00:51:49;4.32;;;2.20;;
23632;SDS011;11993;48.748;9.166;2023-09-18T00:54:16;7.05;;;2.60;;
23632;SDS011;11993;48.748;9.166;2023-09-18T00:56:44;5.53;;;2.22;;
23632;SDS011;11993;48.748;9.166;2023-09-18T00:59:11;4.15;;;2.38;;
23632;SDS011;11993;48.748;9.166;2023-09-18T01:01:38;6.10;;;2.10;;
23632;SDS011;11993;48.748;9.166;2023-09-18T01:04:05;6.53;;;2.10;;
23632;SDS011;11993;48.748;9.166;2023-09-18T01:06:32;7.07;;;2.50;;
23632;SDS011;11993;48.748;9.166;2023-09-18T01:08:58;6.25;;;2.35;;
23632;SDS011;11993;48.748;9.166;2023-09-18T01:14:17;4.53;;;2.53;;
23632;SDS011;11993;48.748;9.166;2023-09-18T01:16:59;3.88;;;2.00;;
23632;SDS011;11993;48.748;9.166;2023-09-18T01:19:41;4.00;;;2.60;;
23632;SDS011;11993;48.748;9.166;2023-09-18T01:22:11;6.95;;;2.53;;
23632;SDS011;11993;48.748;9.166;2023-09-18T01:24:37;11.60;;;2.50;;
23632;SDS011;11993;48.748;9.166;2023-09-18T01:27:04;3.60;;;2.30;;
23632;SDS011;11993;48.748;9.166;2023-09-18T01:29:33;4.88;;;2.70;;
23632;SDS011;11993;48.748;9.166;2023-09-18T01:31:58;3.88;;;2.40;;
23632;SDS011;11993;48.748;9.166;2023-09-18T01:34:31;3.35;;;2.30;;
23632;SDS011;11993;48.748;9.166;2023-09-18T01:37:19;4.40;;;2.40;;
23632;SDS011;11993;48.748;9.166;2023-09-18T01:39:47;6.00;;;2.60;;
23632;SDS011;11993;48.748;9.166;2023-09-18T01:42:14;4.22;;;2.45;;
23632;SDS011;11993;48.748;9.166;2023-09-18T01:44:41;5.88;;;2.50;;
23632;SDS011;11993;48.748;9.166;2023-09-18T01:47:07;4.07;;;2.63;;
23632;SDS011;11993;48.748;9.166;2023-09-18T01:49:36;6.50;;;2.67;;
23632;SDS011;11993;48.748;9.166;2023-09-18T01:52:04;5.05;;;2.60;;
23632;SDS011;11993;48.748;9.166;2023-09-18T01:54:31;11.10;;;2.42;;
23632;SDS011;11993;48.748;9.166;2023-09-18T01:56:57;7.88;;;2.67;;
23632;SDS011;11993;48.748;9.166;2023-09-18T01:59:23;4.13;;;2.03;;
23632;SDS011;11993;48.748;9.166;2023-09-18T02:01:49;5.22;;;2.08;;
23632;SDS011;11993;48.748;9.166;2023-09-18T02:04:16;6.90;;;2.70;;
23632;SDS011;11993;48.748;9.166;2023-09-18T02:06:42;25.05;;;3.85;;
23632;SDS011;11993;48.748;9.166;2023-09-18T02:09:08;17.25;;;3.20;;
23632;SDS011;11993;48.748;9.166;2023-09-18T02:11:35;14.48;;;3.20;;
23632;SDS011;11993;48.748;9.166;2023-09-18T02:14:04;12.35;;;2.53;;
23632;SDS011;11993;48.748;9.166;2023-09-18T02:16:34;16.92;;;2.72;;
23632;SDS011;11993;48.748;9.166;2023-09-18T02:19:01;19.30;;;3.20;;
23632;SDS011;11993;48.748;9.166;2023-09-18T02:21:30;11.73;;;2.30;;
23632;SDS011;11993;48.748;9.166;2023-09-18T02:23:56;13.13;;;3.28;;
23632;SDS011;11993;48.748;9.166;2023-09-18T02:26:23;10.80;;;2.20;;
23632;SDS011;11993;48.748;9.166;2023-09-18T02:28:51;10.10;;;2.40;;
23632;SDS011;11993;48.748;9.166;2023-09-18T02:31:17;9.70;;;2.58;;
23632;SDS011;11993;48.748;9.166;2023-09-18T02:33:43;8.43;;;1.98;;
23632;SDS011;11993;48.748;9.166;2023-09-18T02:36:09;11.73;;;2.65;;
23632;SDS011;11993;48.748;9.166;2023-09-18T02:38:35;20.90;;;2.88;;
23632;SDS011;11993;48.748;9.166;2023-09-18T02:41:00;14.68;;;2.88;;
23632;SDS011;11993;48.748;9.166;2023-09-18T02:43:26;19.83;;;2.88;;
23632;SDS011;11993;48.748;9.166;2023-09-18T02:45:52;18.42;;;3.30;;
23632;SDS011;11993;48.748;9.166;2023-09-18T02:48:17;14.43;;;3.05;;
23632;SDS011;11993;48.748;9.166;2023-09-18T02:50:44;21.73;;;3.95;;
23632;SDS011;11993;48.748;9.166;2023-09-18T02:53:20;13.48;;;2.85;;
23632;SDS011;11993;48.748;9.166;2023-09-18T02:55:49;18.27;;;2.88;;
23632;SDS011;11993;48.748;9.166;2023-09-18T02:58:19;20.05;;;3.40;;
23632;SDS011;11993;48.748;9.166;2023-09-18T03:00:45;17.20;;;3.45;;
23632;SDS011;11993;48.748;9.166;2023-09-18T03:03:13;22.15;;;3.60;;
23632;SDS011;11993;48.748;9.166;2023-09-18T03:05:40;15.60;;;3.22;;
23632;SDS011;11993;48.748;9.166;2023-09-18T03:08:06;13.50;;;2.95;;
23632;SDS011;11993;48.748;9.166;2023-09-18T03:10:33;20.38;;;3.35;;
23632;SDS011;11993;48.748;9.166;2023-09-18T03:13:05;17.50;;;3.28;;
23632;SDS011;11993;48.748;9.166;2023-09-18T03:15:31;10.65;;;2.60;;
23632;SDS011;11993;48.748;9.166;2023-09-18T03:17:57;17.75;;;3.15;;
23632;SDS011;11993;48.748;9.166;2023-09-18T03:20:24;12.00;;;3.28;;
23632;SDS011;11993;48.748;9.166;2023-09-18T03:22:50;15.73;;;3.25;;
23632;SDS011;11993;48.748;9.166;2023-09-18T03:25:16;16.70;;;2.75;;
23632;SDS011;11993;48.748;9.166;2023-09-18T03:27:42;14.32;;;2.67;;
23632;SDS011;11993;48.748;9.166;2023-09-18T03:30:07;10.98;;;2.60;;
23632;SDS011;11993;48.748;9.166;2023-09-18T03:32:33;15.05;;;2.92;;
23632;SDS011;11993;48.748;9.166;2023-09-18T03:34:59;10.90;;;2.22;;
23632;SDS011;11993;48.748;9.166;2023-09-18T03:37:25;9.40;;;2.38;;
23632;SDS011;11993;48.748;9.166;2023-09-18T03:39:50;12.18;;;2.60;;
23632;SDS011;11993;48.748;9.166;2023-09-18T03:42:16;13.20;;;3.03;;
23632;SDS011;11993;48.748;9.166;2023-09-18T03:44:41;12.10;;;2.90;;
23632;SDS011;11993;48.748;9.166;2023-09-18T03:47:07;18.67;;;3.03;;
23632;SDS011;11993;48.748;9.166;2023-09-18T03:49:33;11.20;;;2.72;;
23632;SDS011;11993;48.748;9.166;2023-09-18T03:51:58;10.13;;;2.30;;
23632;SDS011;11993;48.748;9.166;2023-09-18T03:54:24;12.55;;;2.78;;
23632;SDS011;11993;48.748;9.166;2023-09-18T03:56:49;13.45;;;2.85;;
23632;SDS011;11993;48.748;9.166;2023-09-18T03:59:15;17.20;;;2.75;;
23632;SDS011;11993;48.748;9.166;2023-09-18T04:01:40;17.02;;;3.10;;
23632;SDS011;11993;48.748;9.166;2023-09-18T04:04:06;17.52;;;3.15;;
23632;SDS011;11993;48.748;9.166;2023-09-18T04:06:40;13.57;;;2.75;;
23632;SDS011;11993;48.748;9.166;2023-09-18T04:09:06;11.30;;;2.83;;
23632;SDS011;11993;48.748;9.166;2023-09-18T04:11:32;9.80;;;2.70;;
23632;SDS011;11993;48.748;9.166;2023-09-18T04:13:58;15.77;;;2.70;;
23632;SDS011;11993;48.748;9.166;2023-09-18T04:16:25;13.32;;;2.97;;
23632;SDS011;11993;48.748;9.166;2023-09-18T04:18:52;12.70;;;3.00;;
23632;SDS011;11993;48.748;9.166;2023-09-18T04:21:18;10.07;;;2.55;;
23632;SDS011;11993;48.748;9.166;2023-09-18T04:23:44;10.52;;;2.72;;
23632;SDS011;11993;48.748;9.166;2023-09-18T04:26:10;12.05;;;3.08;;
23632;SDS011;11993;48.748;9.166;2023-09-18T04:28:35;10.90;;;3.03;;
23632;SDS011;11993;48.748;9.166;2023-09-18T04:31:01;10.65;;;2.38;;
23632;SDS011;11993;48.748;9.166;2023-09-18T04:33:26;13.35;;;2.75;;
23632;SDS011;11993;48.748;9.166;2023-09-18T04:35:54;14.13;;;2.53;;
23632;SDS011;11993;48.748;9.166;2023-09-18T04:38:19;8.90;;;2.30;;
23632;SDS011;11993;48.748;9.166;2023-09-18T04:40:45;13.90;;;3.13;;
23632;SDS011;11993;48.748;9.166;2023-09-18T04:43:10;12.02;;;3.17;;
23632;SDS011;11993;48.748;9.166;2023-09-18T04:45:36;10.80;;;2.40;;
23632;SDS011;11993;48.748;9.166;2023-09-18T04:48:02;10.55;;;2.35;;
23632;SDS011;11993;48.748;9.166;2023-09-18T04:50:30;8.48;;;2.53;;
23632;SDS011;11993;48.748;9.166;2023-09-18T04:52:56;7.22;;;2.60;;
23632;SDS011;11993;48.748;9.166;2023-09-18T04:55:22;10.75;;;2.70;;
23632;SDS011;11993;48.748;9.166;2023-09-18T04:57:48;17.83;;;9.30;;
23632;SDS011;11993;48.748;9.166;2023-09-18T05:00:14;8.35;;;3.05;;
23632;SDS011;11993;48.748;9.166;2023-09-18T05:02:40;14.10;;;3.10;;
23632;SDS011;11993;48.748;9.166;2023-09-18T05:05:06;24.00;;;11.90;;
23632;SDS011;11993;48.748;9.166;2023-09-18T05:07:33;11.88;;;4.22;;
23632;SDS011;11993;48.748;9.166;2023-09-18T05:09:59;8.43;;;2.53;;
23632;SDS011;11993;48.748;9.166;2023-09-18T05:12:25;9.98;;;2.65;;
23632;SDS011;11993;48.748;9.166;2023-09-18T05:14:51;14.18;;;2.60;;
23632;SDS011;11993;48.748;9.166;2023-09-18T05:17:16;7.88;;;2.53;;
23632;SDS011;11993;48.748;9.166;2023-09-18T05:19:43;11.45;;;2.92;;
23632;SDS011;11993;48.748;9.166;2023-09-18T05:22:09;14.82;;;3.05;;
23632;SDS011;11993;48.748;9.166;2023-09-18T05:24:35;16.25;;;3.00;;
23632;SDS011;11993;48.748;9.166;2023-09-18T05:27:04;11.93;;;3.03;;
23632;SDS011;11993;48.748;9.166;2023-09-18T05:29:33;12.10;;;2.83;;
23632;SDS011;11993;48.748;9.166;2023-09-18T05:32:00;10.85;;;2.75;;
23632;SDS011;11993;48.748;9.166;2023-09-18T05:34:25;13.48;;;2.70;;
23632;SDS011;11993;48.748;9.166;2023-09-18T05:36:51;11.63;;;2.90;;
23632;SDS011;11993;48.748;9.166;2023-09-18T05:39:17;18.55;;;4.15;;
23632;SDS011;11993;48.748;9.166;2023-09-18T05:41:43;16.58;;;3.70;;
23632;SDS011;11993;48.748;9.166;2023-09-18T05:44:08;18.92;;;3.45;;
23632;SDS011;11993;48.748;9.166;2023-09-18T05:46:37;14.57;;;2.90;;
23632;SDS011;11993;48.748;9.166;2023-09-18T05:49:03;14.43;;;3.20;;
23632;SDS011;11993;48.748;9.166;2023-09-18T05:51:29;13.50;;;3.08;;
23632;SDS011;11993;48.748;9.166;2023-09-18T05:53:55;9.82;;;2.50;;
23632;SDS011;11993;48.748;9.166;2023-09-18T05:56:21;9.68;;;2.65;;
23632;SDS011;11993;48.748;9.166;2023-09-18T05:58:46;15.20;;;3.28;;
23632;SDS011;11993;48.748;9.166;2023-09-18T06:01:12;9.05;;;2.78;;
23632;SDS011;11993;48.748;9.166;2023-09-18T06:03:37;7.93;;;2.25;;
23632;SDS011;11993;48.748;9.166;2023-09-18T06:06:03;13.82;;;3.45;;
23632;SDS011;11993;48.748;9.166;2023-09-18T06:08:33;11.95;;;3.00;;
23632;SDS011;11993;48.748;9.166;2023-09-18T06:14:21;14.38;;;3.45;;
23632;SDS011;11993;48.748;9.166;2023-09-18T06:16:47;10.85;;;2.85;;
23632;SDS011;11993;48.748;9.166;2023-09-18T06:19:12;11.48;;;3.03;;
23632;SDS011;11993;48.748;9.166;2023-09-18T06:21:38;12.25;;;2.90;;
23632;SDS011;11993;48.748;9.166;2023-09-18T06:24:04;13.98;;;3.00;;
23632;SDS011;11993;48.748;9.166;2023-09-18T06:26:29;16.55;;;3.30;;
23632;SDS011;11993;48.748;9.166;2023-09-18T06:28:55;13.90;;;3.47;;
23632;SDS011;11993;48.748;9.166;2023-09-18T06:31:20;14.43;;;3.63;;
23632;SDS011;11993;48.748;9.166;2023-09-18T06:33:48;18.08;;;3.00;;
23632;SDS011;11993;48.748;9.166;2023-09-18T06:36:16;20.15;;;3.90;;
23632;SDS011;11993;48.748;9.166;2023-09-18T06:38:42;10.93;;;2.70;;
23632;SDS011;11993;48.748;9.166;2023-09-18T06:41:07;7.72;;;2.53;;
23632;SDS011;11993;48.748;9.166;2023-09-18T06:43:33;10.45;;;3.40;;
23632;SDS011;11993;48.748;9.166;2023-09-18T06:45:58;8.20;;;2.88;;
23632;SDS011;11993;48.748;9.166;2023-09-18T06:48:24;9.70;;;2.60;;
23632;SDS011;11993;48.748;9.166;2023-09-18T06:50:50;9.55;;;3.22;;
23632;SDS011;11993;48.748;9.166;2023-09-18T06:53:15;12.95;;;2.95;;
23632;SDS011;11993;48.748;9.166;2023-09-18T06:55:41;15.80;;;3.38;;
23632;SDS011;11993;48.748;9.166;2023-09-18T06:58:06;12.10;;;2.83;;
23632;SDS011;11993;48.748;9.166;2023-09-18T07:00:32;9.63;;;2.45;;
23632;SDS011;11993;48.748;9.166;2023-09-18T07:02:57;9.30;;;2.75;;
23632;SDS011;11993;48.748;9.166;2023-09-18T07:05:23;14.70;;;3.00;;
23632;SDS011;11993;48.748;9.166;2023-09-18T07:07:48;8.77;;;2.55;;
23632;SDS011;11993;48.748;9.166;2023-09-18T07:10:14;5.47;;;2.00;;
23632;SDS011;11993;48.748;9.166;2023-09-18T07:12:40;9.50;;;2.50;;
23632;SDS011;11993;48.748;9.166;2023-09-18T07:15:05;9.88;;;2.60;;
23632;SDS011;11993;48.748;9.166;2023-09-18T07:17:32;10.48;;;2.33;;
23632;SDS011;11993;48.748;9.166;2023-09-18T07:19:58;8.85;;;2.65;;
23632;SDS011;11993;48.748;9.166;2023-09-18T07:22:25;7.22;;;2.20;;
23632;SDS011;11993;48.748;9.166;2023-09-18T07:24:50;8.88;;;2.05;;
23632;SDS011;11993;48.748;9.166;2023-09-18T07:27:16;9.45;;;1.90;;
23632;SDS011;11993;48.748;9.166;2023-09-18T07:29:41;8.15;;;1.65;;
23632;SDS011;11993;48.748;9.166;2023-09-18T07:32:07;7.28;;;1.80;;
23632;SDS011;11993;48.748;9.166;2023-09-18T07:34:34;5.03;;;1.85;;
23632;SDS011;11993;48.748;9.166;2023-09-18T07:37:00;4.85;;;1.38;;
23632;SDS011;11993;48.748;9.166;2023-09-18T07:39:25;6.60;;;1.35;;
23632;SDS011;11993;48.748;9.166;2023-09-18T07:41:51;6.03;;;1.80;;
23632;SDS011;11993;48.748;9.166;2023-09-18T07:44:20;6.93;;;1.40;;
23632;SDS011;11993;48.748;9.166;2023-09-18T07:46:46;4.05;;;1.45;;
23632;SDS011;11993;48.748;9.166;2023-09-18T07:49:12;10.23;;;1.75;;
23632;SDS011;11993;48.748;9.166;2023-09-18T07:51:39;4.43;;;2.15;;
23632;SDS011;11993;48.748;9.166;2023-09-18T07:54:06;8.25;;;1.55;;
23632;SDS011;11993;48.748;9.166;2023-09-18T07:56:32;3.72;;;1.38;;
23632;SDS011;11993;48.748;9.166;2023-09-18T07:58:59;8.55;;;1.42;;
23632;SDS011;11993;48.748;9.166;2023-09-18T08:01:25;7.95;;;2.10;;
23632;SDS011;11993;48.748;9.166;2023-09-18T08:03:50;3.38;;;1.20;;
23632;SDS011;11993;48.748;9.166;2023-09-18T08:06:16;7.35;;;1.25;;
23632;SDS011;11993;48.748;9.166;2023-09-18T08:08:44;4.32;;;1.23;;
23632;SDS011;11993;48.748;9.166;2023-09-18T08:11:09;4.97;;;1.30;;
23632;SDS011;11993;48.748;9.166;2023-09-18T08:13:35;6.45;;;1.63;;
23632;SDS011;11993;48.748;9.166;2023-09-18T08:16:02;5.88;;;1.42;;
23632;SDS011;11993;48.748;9.166;2023-09-18T08:18:30;4.40;;;1.77;;
23632;SDS011;11993;48.748;9.166;2023-09-18T08:20:56;4.72;;;1.30;;
23632;SDS011;11993;48.748;9.166;2023-09-18T08:23:23;4.80;;;0.90;;
23632;SDS011;11993;48.748;9.166;2023-09-18T08:25:49;4.93;;;1.33;;
23632;SDS011;11993;48.748;9.166;2023-09-18T08:28:16;6.03;;;1.40;;
23632;SDS011;11993;48.748;9.166;2023-09-18T08:30:42;4.63;;;1.30;;
23632;SDS011;11993;48.748;9.166;2023-09-18T08:33:12;8.85;;;1.50;;
23632;SDS011;11993;48.748;9.166;2023-09-18T08:35:38;6.95;;;1.40;;
23632;SDS011;11993;48.748;9.166;2023-09-18T08:38:04;6.22;;;1.42;;
23632;SDS011;11993;48.748;9.166;2023-09-18T08:40:30;5.22;;;1.60;;
23632;SDS011;11993;48.748;9.166;2023-09-18T08:42:56;2.42;;;1.17;;
23632;SDS011;11993;48.748;9.166;2023-09-18T08:45:27;5.60;;;1.25;;
23632;SDS011;11993;48.748;9.166;2023-09-18T08:47:58;5.22;;;1.20;;
23632;SDS011;11993;48.748;9.166;2023-09-18T08:50:25;4.40;;;1.10;;
23632;SDS011;11993;48.748;9.166;2023-09-18T08:52:51;3.83;;;1.45;;
23632;SDS011;11993;48.748;9.166;2023-09-18T08:55:17;4.40;;;1.17;;
23632;SDS011;11993;48.748;9.166;2023-09-18T08:57:43;7.60;;;1.38;;
23632;SDS011;11993;48.748;9.166;2023-09-18T09:00:11;5.28;;;1.23;;
23632;SDS011;11993;48.748;9.166;2023-09-18T09:02:41;2.08;;;1.10;;
23632;SDS011;11993;48.748;9.166;2023-09-18T09:05:10;8.18;;;1.20;;
23632;SDS011;11993;48.748;9.166;2023-09-18T09:07:36;2.47;;;1.17;;
23632;SDS011;11993;48.748;9.166;2023-09-18T09:10:02;5.07;;;1.27;;
23632;SDS011;11993;48.748;9.166;2023-09-18T09:15:16;5.10;;;1.27;;
23632;SDS011;11993;48.748;9.166;2023-09-18T09:17:42;6.85;;;1.40;;
23632;SDS011;11993;48.748;9.166;2023-09-18T09:20:10;4.00;;;1.25;;
23632;SDS011;11993;48.748;9.166;2023-09-18T09:22:37;7.65;;;1.35;;
23632;SDS011;11993;48.748;9.166;2023-09-18T09:25:05;6.35;;;1.52;;
23632;SDS011;11993;48.748;9.166;2023-09-18T09:27:51;5.20;;;1.67;;
23632;SDS011;11993;48.748;9.166;2023-09-18T09:30:18;6.97;;;1.60;;
23632;SDS011;11993;48.748;9.166;2023-09-18T09:32:49;6.57;;;1.35;;
23632;SDS011;11993;48.748;9.166;2023-09-18T09:35:21;6.50;;;1.88;;
23632;SDS011;11993;48.748;9.166;2023-09-18T09:37:52;7.32;;;1.85;;
23632;SDS011;11993;48.748;9.166;2023-09-18T09:40:22;5.13;;;1.60;;
23632;SDS011;11993;48.748;9.166;2023-09-18T09:42:50;6.13;;;1.85;;
23632;SDS011;11993;48.748;9.166;2023-09-18T09:45:16;4.45;;;1.40;;
23632;SDS011;11993;48.748;9.166;2023-09-18T09:47:43;9.85;;;1.67;;
23632;SDS011;11993;48.748;9.166;2023-09-18T09:50:13;4.82;;;1.27;;
23632;SDS011;11993;48.748;9.166;2023-09-18T09:52:42;4.15;;;1.50;;
23632;SDS011;11993;48.748;9.166;2023-09-18T09:55:26;4.97;;;1.70;;
23632;SDS011;11993;48.748;9.166;2023-09-18T09:58:05;6.70;;;1.70;;
23632;SDS011;11993;48.748;9.166;2023-09-18T10:03:08;3.78;;;1.45;;
23632;SDS011;11993;48.748;9.166;2023-09-18T10:05:39;2.30;;;1.17;;
23632;SDS011;11993;48.748;9.166;2023-09-18T10:08:07;6.28;;;1.58;;
23632;SDS011;11993;48.748;9.166;2023-09-18T10:10:36;4.95;;;1.70;;
23632;SDS011;11993;48.748;9.166;2023-09-18T10:13:12;4.45;;;1.55;;
23632;SDS011;11993;48.748;9.166;2023-09-18T10:15:50;7.45;;;1.63;;
23632;SDS011;11993;48.748;9.166;2023-09-18T10:18:20;3.95;;;1.70;;
23632;SDS011;11993;48.748;9.166;2023-09-18T10:20:55;4.43;;;1.55;;
23632;SDS011;11993;48.748;9.166;2023-09-18T10:23:32;4.32;;;1.60;;
23632;SDS011;11993;48.748;9.166;2023-09-18T10:26:09;7.88;;;2.08;;
23632;SDS011;11993;48.748;9.166;2023-09-18T10:28:41;5.55;;;1.88;;
23632;SDS011;11993;48.748;9.166;2023-09-18T10:31:09;5.93;;;1.80;;
23632;SDS011;11993;48.748;9.166;2023-09-18T10:33:36;4.57;;;1.55;;
23632;SDS011;11993;48.748;9.166;2023-09-18T10:36:03;6.10;;;1.98;;
23632;SDS011;11993;48.748;9.166;2023-09-18T10:38:30;6.45;;;1.98;;
23632;SDS011;11993;48.748;9.166;2023-09-18T10:40:57;7.10;;;2.10;;
23632;SDS011;11993;48.748;9.166;2023-09-18T10:43:23;6.15;;;1.40;;
23632;SDS011;11993;48.748;9.166;2023-09-18T10:45:49;5.68;;;1.75;;
23632;SDS011;11993;48.748;9.166;2023-09-18T10:48:16;6.70;;;1.58;;
23632;SDS011;11993;48.748;9.166;2023-09-18T10:50:43;9.82;;;1.80;;
23632;SDS011;11993;48.748;9.166;2023-09-18T10:53:10;4.40;;;1.85;;
23632;SDS011;11993;48.748;9.166;2023-09-18T10:55:36;4.45;;;1.65;;
23632;SDS011;11993;48.748;9.166;2023-09-18T10:58:03;3.58;;;1.85;;
23632;SDS011;11993;48.748;9.166;2023-09-18T11:00:29;4.53;;;1.35;;
23632;SDS011;11993;48.748;9.166;2023-09-18T11:03:09;3.00;;;1.63;;
23632;SDS011;11993;48.748;9.166;2023-09-18T11:05:37;2.60;;;1.33;;
23632;SDS011;11993;48.748;9.166;2023-09-18T11:10:54;4.32;;;1.60;;
23632;SDS011;11993;48.748;9.166;2023-09-18T11:13:31;6.50;;;1.27;;
23632;SDS011;11993;48.748;9.166;2023-09-18T11:16:03;4.53;;;1.40;;
23632;SDS011;11993;48.748;9.166;2023-09-18T11:18:41;7.50;;;1.52;;
23632;SDS011;11993;48.748;9.166;2023-09-18T11:21:10;3.78;;;1.65;;
23632;SDS011;11993;48.748;9.166;2023-09-18T11:23:37;10.55;;;1.85;;
23632;SDS011;11993;48.748;9.166;2023-09-18T11:26:08;5.70;;;1.85;;
23632;SDS011;11993;48.748;9.166;2023-09-18T11:28:35;4.32;;;1.58;;
23632;SDS011;11993;48.748;9.166;2023-09-18T11:31:02;5.75;;;1.50;;
23632;SDS011;11993;48.748;9.166;2023-09-18T11:33:36;2.92;;;1.40;;
23632;SDS011;11993;48.748;9.166;2023-09-18T11:36:12;3.53;;;0.90;;
23632;SDS011;11993;48.748;9.166;2023-09-18T11:38:58;3.55;;;1.30;;
23632;SDS011;11993;48.748;9.166;2023-09-18T11:41:30;3.17;;;1.45;;
23632;SDS011;11993;48.748;9.166;2023-09-18T11:46:39;3.33;;;1.30;;
23632;SDS011;11993;48.748;9.166;2023-09-18T11:49:08;4.55;;;1.65;;
23632;SDS011;11993;48.748;9.166;2023-09-18T11:51:37;5.13;;;1.67;;
23632;SDS011;11993;48.748;9.166;2023-09-18T11:54:03;4.30;;;1.50;;
23632;SDS011;11993;48.748;9.166;2023-09-18T11:56:32;3.42;;;1.35;;
23632;SDS011;11993;48.748;9.166;2023-09-18T11:58:58;4.20;;;1.42;;
23632;SDS011;11993;48.748;9.166;2023-09-18T12:01:25;4.68;;;1.40;;
23632;SDS011;11993;48.748;9.166;2023-09-18T12:03:54;3.65;;;1.52;;
23632;SDS011;11993;48.748;9.166;2023-09-18T12:06:25;4.45;;;1.60;;
23632;SDS011;11993;48.748;9.166;2023-09-18T12:08:51;3.85;;;1.30;;
23632;SDS011;11993;48.748;9.166;2023-09-18T12:11:18;4.43;;;1.48;;
23632;SDS011;11993;48.748;9.166;2023-09-18T12:13:45;3.17;;;1.40;;
23632;SDS011;11993;48.748;9.166;2023-09-18T12:16:11;4.60;;;1.63;;
23632;SDS011;11993;48.748;9.166;2023-09-18T12:18:37;2.78;;;1.58;;
23632;SDS011;11993;48.748;9.166;2023-09-18T12:21:12;7.95;;;1.67;;
23632;SDS011;11993;48.748;9.166;2023-09-18T12:23:39;3.13;;;1.67;;
23632;SDS011;11993;48.748;9.166;2023-09-18T12:26:05;6.13;;;1.30;;
23632;SDS011;11993;48.748;9.166;2023-09-18T12:28:35;3.72;;;1.30;;
23632;SDS011;11993;48.748;9.166;2023-09-18T12:31:01;3.80;;;1.70;;
23632;SDS011;11993;48.748;9.166;2023-09-18T12:33:30;6.00;;;1.27;;
23632;SDS011;11993;48.748;9.166;2023-09-18T12:36:00;3.38;;;1.35;;
23632;SDS011;11993;48.748;9.166;2023-09-18T12:38:25;4.70;;;1.73;;
23632;SDS011;11993;48.748;9.166;2023-09-18T12:40:53;3.80;;;1.50;;
23632;SDS011;11993;48.748;9.166;2023-09-18T12:43:20;2.72;;;1.48;;
23632;SDS011;11993;48.748;9.166;2023-09-18T12:45:47;5.30;;;1.48;;
23632;SDS011;11993;48.748;9.166;2023-09-18T12:48:14;3.05;;;1.50;;
23632;SDS011;11993;48.748;9.166;2023-09-18T12:50:40;2.70;;;1.33;;
23632;SDS011;11993;48.748;9.166;2023-09-18T12:53:10;3.90;;;1.70;;
23632;SDS011;11993;48.748;9.166;2023-09-18T12:55:37;2.45;;;1.25;;
23632;SDS011;11993;48.748;9.166;2023-09-18T12:58:03;4.72;;;1.55;;
23632;SDS011;11993;48.748;9.166;2023-09-18T13:00:35;2.80;;;1.27;;
23632;SDS011;11993;48.748;9.166;2023-09-18T13:03:02;2.85;;;1.20;;
23632;SDS011;11993;48.748;9.166;2023-09-18T13:05:29;2.17;;;1.30;;
23632;SDS011;11993;48.748;9.166;2023-09-18T13:08:00;2.83;;;1.25;;
23632;SDS011;11993;48.748;9.166;2023-09-18T13:10:43;5.30;;;1.35;;
23632;SDS011;11993;48.748;9.166;2023-09-18T13:13:24;8.52;;;1.60;;
23632;SDS011;11993;48.748;9.166;2023-09-18T13:15:50;4.03;;;1.20;;
23632;SDS011;11993;48.748;9.166;2023-09-18T13:18:16;4.47;;;1.40;;
23632;SDS011;11993;48.748;9.166;2023-09-18T13:20:42;3.17;;;1.00;;
23632;SDS011;11993;48.748;9.166;2023-09-18T13:23:08;6.93;;;1.40;;
23632;SDS011;11993;48.748;9.166;2023-09-18T13:25:35;2.40;;;1.20;;
23632;SDS011;11993;48.748;9.166;2023-09-18T13:28:04;3.45;;;1.20;;
23632;SDS011;11993;48.748;9.166;2023-09-18T13:30:31;2.88;;;1.42;;
23632;SDS011;11993;48.748;9.166;2023-09-18T13:33:04;2.78;;;1.20;;
23632;SDS011;11993;48.748;9.166;2023-09-18T13:35:31;2.47;;;1.05;;
23632;SDS011;11993;48.748;9.166;2023-09-18T13:37:57;1.83;;;0.95;;
23632;SDS011;11993;48.748;9.166;2023-09-18T13:40:23;4.45;;;1.30;;
23632;SDS011;11993;48.748;9.166;2023-09-18T13:42:48;2.22;;;1.20;;
23632;SDS011;11993;48.748;9.166;2023-09-18T13:45:14;4.28;;;1.40;;
23632;SDS011;11993;48.748;9.166;2023-09-18T13:47:41;2.80;;;1.15;;
23632;SDS011;11993;48.748;9.166;2023-09-18T13:50:08;2.95;;;1.20;;
23632;SDS011;11993;48.748;9.166;2023-09-18T13:52:35;6.55;;;1.50;;
23632;SDS011;11993;48.748;9.166;2023-09-18T13:55:02;2.83;;;1.15;;
23632;SDS011;11993;48.748;9.166;2023-09-18T13:57:30;1.45;;;1.05;;
23632;SDS011;11993;48.748;9.166;2023-09-18T14:00:02;9.88;;;1.30;;
23632;SDS011;11993;48.748;9.166;2023-09-18T14:02:36;4.50;;;1.30;;
23632;SDS011;11993;48.748;9.166;2023-09-18T14:05:06;2.60;;;1.23;;
23632;SDS011;11993;48.748;9.166;2023-09-18T14:07:33;3.33;;;1.38;;
23632;SDS011;11993;48.748;9.166;2023-09-18T14:09:59;2.28;;;1.10;;
23632;SDS011;11993;48.748;9.166;2023-09-18T14:12:28;2.80;;;1.17;;
23632;SDS011;11993;48.748;9.166;2023-09-18T14:14:55;3.05;;;1.15;;
23632;SDS011;11993;48.748;9.166;2023-09-18T14:17:20;6.32;;;1.20;;
23632;SDS011;11993;48.748;9.166;2023-09-18T14:19:47;2.15;;;1.10;;
23632;SDS011;11993;48.748;9.166;2023-09-18T14:22:12;1.98;;;1.00;;
23632;SDS011;11993;48.748;9.166;2023-09-18T14:24:39;5.22;;;1.05;;
23632;SDS011;11993;48.748;9.166;2023-09-18T14:27:05;4.15;;;1.40;;
23632;SDS011;11993;48.748;9.166;2023-09-18T14:29:31;5.18;;;1.42;;
23632;SDS011;11993;48.748;9.166;2023-09-18T14:31:58;5.13;;;1.50;;
23632;SDS011;11993;48.748;9.166;2023-09-18T14:34:27;2.38;;;1.10;;
23632;SDS011;11993;48.748;9.166;2023-09-18T14:36:55;1.90;;;1.15;;
23632;SDS011;11993;48.748;9.166;2023-09-18T14:39:21;1.95;;;0.88;;
23632;SDS011;11993;48.748;9.166;2023-09-18T14:41:46;2.92;;;1.17;;
23632;SDS011;11993;48.748;9.166;2023-09-18T14:44:13;3.72;;;1.20;;
23632;SDS011;11993;48.748;9.166;2023-09-18T14:46:38;3.00;;;1.10;;
23632;SDS011;11993;48.748;9.166;2023-09-18T14:49:04;5.13;;;1.10;;
23632;SDS011;11993;48.748;9.166;2023-09-18T14:51:32;2.80;;;0.93;;
23632;SDS011;11993;48.748;9.166;2023-09-18T14:53:58;3.67;;;0.88;;
23632;SDS011;11993;48.748;9.166;2023-09-18T14:56:26;2.47;;;1.10;;
23632;SDS011;11993;48.748;9.166;2023-09-18T14:58:52;1.88;;;0.95;;
23632;SDS011;11993;48.748;9.166;2023-09-18T15:01:18;1.95;;;1.10;;